Time;durP1;ratioP1;P1;durP2;ratioP2;P2;SDS_P1;SDS_P2;PMS_P1;PMS_P2;Temp;Humidity;BMP_temperature;BMP_pressure;BME280_temperature;BME280_humidity;BME280_pressure;Samples;Min_cycle;Max_cycle;Signal;HPM_P1;HPM_P2
2021/12/13 00:01:35;;;;;;;2.83;0.80;;;11.90;99.90;;;;;;5019567;28;20073;-58
2021/12/13 00:04:08;;;;;;;4.28;1.00;;;11.90;99.90;;;;;;5024770;28;20053;-57
2021/12/13 00:06:43;;;;;;;2.85;0.90;;;11.90;99.90;;;;;;5024055;28;20152;-58
2021/12/13 00:09:12;;;;;;;1.17;0.70;;;11.90;99.90;;;;;;5022922;28;20390;-58
2021/12/13 00:11:41;;;;;;;2.20;1.05;;;11.90;99.90;;;;;;5021679;28;20144;-56
2021/12/13 00:14:12;;;;;;;1.77;0.60;;;11.90;99.90;;;;;;5022697;28;20570;-58
2021/12/13 00:16:44;;;;;;;2.00;0.75;;;11.90;99.90;;;;;;5023154;28;20112;-56
2021/12/13 00:19:19;;;;;;;1.20;0.70;;;11.90;99.90;;;;;;5024467;28;20081;-58
2021/12/13 00:21:56;;;;;;;1.80;0.80;;;11.90;99.90;;;;;;5022305;28;20160;-58
2021/12/13 00:24:29;;;;;;;2.22;0.70;;;11.90;99.90;;;;;;5017680;28;20663;-57
2021/12/13 00:27:16;;;;;;;1.40;0.70;;;11.90;99.90;;;;;;5020711;28;20498;-57
2021/12/13 00:30:05;;;;;;;0.95;0.50;;;11.90;99.90;;;;;;5022336;28;22032;-57
2021/12/13 00:32:46;;;;;;;1.98;0.65;;;11.90;99.90;;;;;;5024037;28;20442;-56
2021/12/13 00:35:26;;;;;;;3.67;0.80;;;11.80;99.90;;;;;;5021958;28;20184;-58
2021/12/13 00:37:57;;;;;;;2.08;0.88;;;11.80;99.90;;;;;;5020106;28;20144;-53
2021/12/13 00:40:31;;;;;;;2.72;0.70;;;11.90;99.90;;;;;;5022967;28;20080;-57
2021/12/13 00:43:01;;;;;;;2.63;1.05;;;11.80;99.90;;;;;;5021975;28;20488;-56
2021/12/13 00:45:30;;;;;;;3.63;0.90;;;11.80;99.90;;;;;;5022808;28;20128;-57
2021/12/13 00:48:00;;;;;;;1.83;0.60;;;11.80;99.90;;;;;;5022157;28;20046;-57
2021/12/13 00:50:31;;;;;;;1.88;0.90;;;11.80;99.90;;;;;;5022351;28;20104;-57
2021/12/13 00:52:58;;;;;;;2.15;0.80;;;11.80;99.90;;;;;;5022820;28;20046;-57
2021/12/13 00:55:28;;;;;;;2.85;0.90;;;11.80;99.90;;;;;;5022610;28;20556;-56
2021/12/13 00:58:11;;;;;;;3.67;1.10;;;11.80;99.90;;;;;;5020073;28;20164;-57
2021/12/13 01:00:48;;;;;;;2.30;0.80;;;11.80;99.90;;;;;;5018858;28;20140;-53
2021/12/13 01:03:18;;;;;;;1.60;0.80;;;11.70;99.90;;;;;;5021538;28;20145;-57
2021/12/13 01:06:12;;;;;;;2.03;0.90;;;11.70;99.90;;;;;;5023170;28;20132;-58
2021/12/13 01:09:10;;;;;;;1.75;0.45;;;11.70;99.90;;;;;;5024121;28;20155;-57
2021/12/13 01:11:39;;;;;;;1.73;0.75;;;11.60;99.90;;;;;;5020814;28;20169;-57
2021/12/13 01:14:11;;;;;;;3.47;1.00;;;11.60;99.90;;;;;;5021239;28;20148;-58
2021/12/13 01:19:35;;;;;;;2.28;0.80;;;11.60;99.90;;;;;;5023582;28;20048;-55
2021/12/13 01:22:50;;;;;;;1.40;0.60;;;11.60;99.90;;;;;;5017656;28;20077;-57
2021/12/13 01:28:26;;;;;;;2.33;0.73;;;11.60;99.90;;;;;;5020962;28;20099;-59
2021/12/13 01:31:03;;;;;;;1.92;0.70;;;11.60;99.90;;;;;;5022359;28;20077;-58
2021/12/13 01:33:31;;;;;;;2.10;0.70;;;11.60;99.90;;;;;;5020916;28;20049;-57
2021/12/13 01:36:00;;;;;;;3.13;0.95;;;11.60;99.90;;;;;;5022264;28;20145;-57
2021/12/13 01:38:37;;;;;;;2.30;0.65;;;11.60;99.90;;;;;;5022876;28;20490;-56
2021/12/13 01:41:09;;;;;;;3.50;1.02;;;11.60;99.90;;;;;;5021698;28;20655;-57
2021/12/13 01:43:39;;;;;;;2.50;1.00;;;11.60;99.90;;;;;;5021599;28;20660;-57
2021/12/13 01:46:06;;;;;;;1.98;1.00;;;11.60;99.90;;;;;;5022294;28;20132;-56
2021/12/13 01:48:38;;;;;;;2.38;1.00;;;11.50;99.90;;;;;;5021688;28;20042;-58
2021/12/13 01:51:10;;;;;;;1.40;0.87;;;11.50;99.90;;;;;;5021174;28;20136;-57
2021/12/13 01:53:42;;;;;;;2.45;0.90;;;11.50;99.90;;;;;;5014781;28;20143;-56
2021/12/13 01:56:55;;;;;;;1.55;0.80;;;11.50;99.90;;;;;;5019552;28;20141;-58
2021/12/13 02:02:09;;;;;;;4.07;1.35;;;11.50;99.90;;;;;;5021355;28;20414;-57
2021/12/13 02:04:36;;;;;;;2.25;0.88;;;11.60;99.90;;;;;;5021853;28;20121;-56
2021/12/13 02:07:03;;;;;;;2.30;0.70;;;11.50;99.90;;;;;;5021560;28;20125;-57
2021/12/13 02:09:36;;;;;;;1.98;0.80;;;11.60;99.90;;;;;;5022242;28;20496;-57
2021/12/13 02:12:07;;;;;;;1.73;0.70;;;11.60;99.90;;;;;;5018041;28;20085;-58
2021/12/13 02:14:34;;;;;;;2.17;0.80;;;11.50;99.90;;;;;;5020854;28;20318;-56
2021/12/13 02:17:11;;;;;;;2.65;0.68;;;11.50;99.90;;;;;;5021318;28;20191;-57
2021/12/13 02:19:54;;;;;;;1.20;0.73;;;11.40;99.90;;;;;;5022004;28;20115;-56
2021/12/13 02:22:30;;;;;;;2.97;0.68;;;11.40;99.90;;;;;;5019686;28;20140;-58
2021/12/13 02:25:02;;;;;;;2.35;0.85;;;11.30;99.90;;;;;;5021451;28;20135;-57
2021/12/13 02:27:31;;;;;;;2.97;0.93;;;11.30;99.90;;;;;;5019811;28;20137;-57
2021/12/13 02:30:24;;;;;;;1.95;0.65;;;11.20;99.90;;;;;;5021583;28;20144;-56
2021/12/13 02:32:51;;;;;;;1.80;0.70;;;11.20;99.90;;;;;;5013418;28;20129;-55
2021/12/13 02:35:20;;;;;;;2.05;0.70;;;11.10;99.90;;;;;;5023018;28;20079;-57
2021/12/13 02:37:47;;;;;;;2.10;0.73;;;11.10;99.90;;;;;;5023052;28;20078;-57
2021/12/13 02:40:17;;;;;;;1.83;0.70;;;11.10;99.90;;;;;;5022872;28;20076;-54
2021/12/13 02:42:43;;;;;;;1.25;0.60;;;11.10;99.90;;;;;;5020748;28;20064;-57
2021/12/13 02:45:25;;;;;;;0.93;0.55;;;11.10;99.90;;;;;;5022750;28;20465;-57
2021/12/13 02:48:07;;;;;;;2.50;0.90;;;11.10;99.90;;;;;;5022562;28;20251;-56
2021/12/13 02:50:52;;;;;;;1.83;0.90;;;11.10;99.90;;;;;;5023423;28;20128;-56
2021/12/13 02:53:27;;;;;;;1.88;0.50;;;11.10;99.90;;;;;;5022473;28;20168;-57
2021/12/13 02:55:53;;;;;;;1.63;0.60;;;11.10;99.90;;;;;;5023097;28;20144;-55
2021/12/13 02:58:23;;;;;;;2.78;1.02;;;11.10;99.90;;;;;;5021896;28;20168;-56
2021/12/13 03:01:09;;;;;;;1.25;0.73;;;11.20;99.90;;;;;;5023353;28;20132;-54
2021/12/13 03:03:39;;;;;;;2.05;0.88;;;11.20;99.90;;;;;;5022425;28;20045;-57
2021/12/13 03:06:07;;;;;;;1.38;0.57;;;11.20;99.90;;;;;;5023345;28;20144;-58
2021/12/13 03:08:37;;;;;;;1.65;0.80;;;11.20;99.90;;;;;;5022200;28;20068;-57
2021/12/13 03:11:08;;;;;;;3.95;1.52;;;11.30;99.90;;;;;;5021368;28;20475;-56
2021/12/13 03:13:35;;;;;;;2.53;1.00;;;11.30;99.90;;;;;;5021193;28;20449;-57
2021/12/13 03:16:09;;;;;;;2.17;0.88;;;11.30;99.90;;;;;;5022961;28;20141;-57
2021/12/13 03:19:06;;;;;;;2.53;0.75;;;11.30;99.90;;;;;;5021550;28;20052;-56
2021/12/13 03:21:57;;;;;;;2.50;0.90;;;11.40;99.90;;;;;;5021618;28;20513;-57
2021/12/13 03:24:35;;;;;;;3.25;0.95;;;11.30;99.90;;;;;;5021459;28;20069;-55
2021/12/13 03:27:06;;;;;;;1.88;0.80;;;11.30;99.90;;;;;;5020934;28;20236;-58
2021/12/13 03:29:59;;;;;;;1.35;0.80;;;11.30;99.90;;;;;;5022993;28;20049;-58
2021/12/13 03:32:39;;;;;;;1.35;0.88;;;11.30;99.90;;;;;;5015615;28;20157;-58
2021/12/13 03:35:16;;;;;;;2.25;1.40;;;11.40;99.90;;;;;;5022464;28;20543;-57
2021/12/13 03:37:53;;;;;;;1.23;0.70;;;11.40;99.90;;;;;;5022830;28;20061;-57
2021/12/13 03:40:20;;;;;;;1.50;0.60;;;11.40;99.90;;;;;;5020871;28;20662;-55
2021/12/13 03:42:53;;;;;;;2.65;0.80;;;11.40;99.90;;;;;;5020842;28;20129;-56
2021/12/13 03:45:25;;;;;;;2.15;0.75;;;11.40;99.90;;;;;;5023039;28;20419;-58
2021/12/13 03:47:55;;;;;;;2.83;0.70;;;11.30;99.90;;;;;;5021327;28;20175;-56
2021/12/13 03:50:38;;;;;;;2.10;0.80;;;11.30;99.90;;;;;;5022386;28;20096;-57
2021/12/13 03:53:10;;;;;;;2.67;0.90;;;11.30;99.90;;;;;;5018818;28;20159;-55
2021/12/13 03:55:36;;;;;;;3.17;1.63;;;11.30;99.90;;;;;;5013173;28;20041;-56
2021/12/13 03:58:06;;;;;;;0.68;0.50;;;11.30;99.90;;;;;;5021771;28;20132;-54
2021/12/13 04:00:48;;;;;;;2.35;0.60;;;11.40;99.90;;;;;;5025415;28;20045;-54
2021/12/13 04:03:16;;;;;;;2.13;0.60;;;11.40;99.90;;;;;;5024883;28;20452;-57
2021/12/13 04:05:43;;;;;;;2.28;0.85;;;11.40;99.90;;;;;;5026259;28;20666;-56
2021/12/13 04:08:11;;;;;;;1.30;0.82;;;11.30;99.90;;;;;;5023475;28;20214;-58
2021/12/13 04:10:53;;;;;;;2.13;0.55;;;11.30;99.90;;;;;;5023984;28;20144;-58
2021/12/13 04:13:22;;;;;;;1.08;0.75;;;11.30;99.90;;;;;;5023457;28;20084;-56
2021/12/13 04:16:12;;;;;;;1.25;0.50;;;11.30;99.90;;;;;;5020206;28;20153;-57
2021/12/13 04:21:21;;;;;;;0.40;0.40;;;11.20;99.90;;;;;;5022651;28;20156;-57
2021/12/13 04:23:53;;;;;;;1.42;0.68;;;11.20;99.90;;;;;;5022403;28;20612;-58
2021/12/13 04:26:19;;;;;;;0.95;0.77;;;11.20;99.90;;;;;;5020152;28;20734;-53
2021/12/13 04:28:48;;;;;;;1.58;0.60;;;11.20;99.90;;;;;;5023686;28;20136;-58
2021/12/13 04:31:18;;;;;;;1.17;0.75;;;11.20;99.90;;;;;;5021137;28;20430;-57
2021/12/13 04:33:48;;;;;;;3.05;0.70;;;11.20;99.90;;;;;;5022591;28;20053;-58
2021/12/13 04:36:18;;;;;;;3.95;0.73;;;11.20;99.90;;;;;;5022488;28;20140;-57
2021/12/13 04:38:52;;;;;;;1.83;0.60;;;11.20;99.90;;;;;;5022691;28;20133;-58
2021/12/13 04:41:34;;;;;;;1.75;0.90;;;11.10;99.90;;;;;;5018232;28;20144;-54
2021/12/13 04:44:04;;;;;;;1.20;0.63;;;11.10;99.90;;;;;;5023000;28;20133;-54
2021/12/13 04:46:32;;;;;;;0.88;0.50;;;11.10;99.90;;;;;;5022215;28;20084;-57
2021/12/13 04:49:02;;;;;;;1.02;0.52;;;11.10;99.90;;;;;;5023109;28;20395;-57
2021/12/13 04:51:45;;;;;;;0.82;0.55;;;11.00;99.90;;;;;;5021178;28;20058;-57
2021/12/13 04:54:13;;;;;;;0.50;0.50;;;11.10;99.90;;;;;;5021945;28;20053;-57
2021/12/13 04:56:40;;;;;;;1.17;0.88;;;11.00;99.90;;;;;;5021241;28;20148;-57
2021/12/13 04:59:07;;;;;;;1.80;0.98;;;11.00;99.90;;;;;;5023697;28;20132;-57
2021/12/13 05:01:34;;;;;;;0.90;0.50;;;11.00;99.90;;;;;;5022287;28;20180;-57
2021/12/13 05:04:02;;;;;;;2.20;0.80;;;11.00;99.90;;;;;;5021944;28;20153;-55
2021/12/13 05:06:38;;;;;;;1.67;0.63;;;11.00;99.90;;;;;;5022039;28;20266;-58
2021/12/13 05:09:08;;;;;;;2.20;0.90;;;11.00;99.90;;;;;;5021995;28;20132;-58
2021/12/13 05:11:43;;;;;;;2.53;0.70;;;11.00;99.90;;;;;;5014389;28;20388;-58
2021/12/13 05:14:10;;;;;;;1.45;0.60;;;11.00;99.90;;;;;;5022324;28;20057;-56
2021/12/13 05:16:37;;;;;;;3.22;1.15;;;10.90;99.90;;;;;;5021563;28;20488;-57
2021/12/13 05:19:04;;;;;;;1.13;0.70;;;11.00;99.90;;;;;;5022782;28;20050;-57
2021/12/13 05:21:39;;;;;;;3.40;1.10;;;11.00;99.90;;;;;;5021086;28;20172;-57
2021/12/13 05:24:15;;;;;;;1.30;0.47;;;11.00;99.90;;;;;;5018052;28;20099;-57
2021/12/13 05:26:45;;;;;;;1.70;0.73;;;11.00;99.90;;;;;;5019799;28;20136;-57
2021/12/13 05:29:28;;;;;;;1.60;0.55;;;11.00;99.90;;;;;;5022961;28;20140;-57
2021/12/13 05:32:17;;;;;;;1.83;0.73;;;11.00;99.90;;;;;;5020877;28;20122;-56
2021/12/13 05:35:01;;;;;;;1.10;0.75;;;11.00;99.90;;;;;;5021944;28;20076;-58
2021/12/13 05:37:38;;;;;;;;;;;11.00;99.90;;;;;;5022751;28;20137;-58
2021/12/13 05:40:10;;;;;;;0.75;0.40;;;11.10;99.90;;;;;;5020920;28;19964;-57
2021/12/13 05:42:54;;;;;;;1.40;0.50;;;11.10;99.90;;;;;;5016588;28;20124;-56
2021/12/13 05:45:34;;;;;;;0.45;0.40;;;11.20;99.90;;;;;;5019428;28;20160;-57
2021/12/13 05:48:13;;;;;;;0.93;0.57;;;11.20;99.90;;;;;;5017112;28;20132;-57
2021/12/13 05:50:42;;;;;;;0.95;0.60;;;11.20;99.90;;;;;;5022554;28;20136;-58
2021/12/13 05:53:12;;;;;;;1.98;0.80;;;11.30;99.90;;;;;;5016902;28;20104;-57
2021/12/13 05:55:54;;;;;;;1.13;0.70;;;11.30;99.90;;;;;;5017352;28;20125;-58
2021/12/13 05:59:26;;;;;;;1.83;0.77;;;11.30;99.90;;;;;;5004388;28;20477;-59
2021/12/13 06:02:07;;;;;;;1.92;0.88;;;11.30;99.90;;;;;;4988292;28;20136;-58
2021/12/13 06:05:05;;;;;;;2.15;0.80;;;11.40;99.90;;;;;;5018949;28;20180;-57
2021/12/13 06:07:34;;;;;;;1.52;0.90;;;11.30;99.90;;;;;;5013627;28;20642;-58
2021/12/13 06:10:13;;;;;;;2.70;0.90;;;11.30;99.90;;;;;;5017421;28;20140;-59
2021/12/13 06:12:50;;;;;;;1.23;0.70;;;11.30;99.90;;;;;;5017128;28;20552;-57
2021/12/13 06:15:16;;;;;;;1.40;0.80;;;11.40;99.90;;;;;;5016478;28;20485;-56
2021/12/13 06:17:57;;;;;;;2.50;0.77;;;11.40;99.90;;;;;;5018328;28;20141;-57
2021/12/13 06:20:37;;;;;;;2.50;0.65;;;11.40;99.90;;;;;;5012054;28;20128;-56
2021/12/13 06:23:11;;;;;;;1.60;0.70;;;11.40;99.90;;;;;;5014311;28;20103;-58
2021/12/13 06:25:39;;;;;;;1.50;0.60;;;11.40;99.90;;;;;;5017810;28;20137;-55
2021/12/13 06:28:07;;;;;;;1.73;0.75;;;11.50;99.90;;;;;;5015446;28;20377;-58
2021/12/13 06:30:38;;;;;;;1.40;0.60;;;11.40;99.90;;;;;;5017104;28;20052;-58
2021/12/13 06:33:07;;;;;;;0.85;0.50;;;11.50;99.90;;;;;;5017423;28;20059;-58
2021/12/13 06:35:43;;;;;;;2.17;0.50;;;11.50;99.90;;;;;;5017671;28;20136;-58
2021/12/13 06:38:18;;;;;;;1.55;0.60;;;11.50;99.90;;;;;;5016746;28;20128;-52
2021/12/13 06:40:57;;;;;;;1.33;0.55;;;11.50;99.90;;;;;;5016277;28;20623;-58
2021/12/13 06:43:42;;;;;;;2.03;0.70;;;11.50;99.90;;;;;;4994603;28;20148;-58
2021/12/13 06:46:12;;;;;;;3.58;0.98;;;11.50;99.90;;;;;;5017396;28;20081;-58
2021/12/13 06:48:44;;;;;;;1.02;0.50;;;11.50;99.90;;;;;;5016818;28;20053;-59
2021/12/13 06:51:14;;;;;;;1.10;0.67;;;11.50;99.90;;;;;;5018232;28;20050;-58
2021/12/13 06:53:41;;;;;;;1.00;0.60;;;11.50;99.90;;;;;;5017185;28;20330;-57
2021/12/13 06:56:21;;;;;;;2.95;0.63;;;11.40;99.90;;;;;;5012150;28;20084;-56
2021/12/13 06:58:52;;;;;;;1.08;0.60;;;11.50;99.90;;;;;;5016538;28;20413;-58
2021/12/13 07:01:19;;;;;;;1.20;0.57;;;11.50;99.90;;;;;;5017698;28;20049;-58
2021/12/13 07:03:57;;;;;;;1.10;0.50;;;11.50;99.90;;;;;;5016204;28;20060;-57
2021/12/13 07:06:24;;;;;;;2.38;0.50;;;11.50;99.90;;;;;;5016247;28;20457;-58
2021/12/13 07:09:17;;;;;;;1.92;0.60;;;11.50;99.90;;;;;;5016896;28;20140;-58
2021/12/13 07:11:50;;;;;;;1.20;0.50;;;11.50;99.90;;;;;;5013622;28;20137;-58
2021/12/13 07:14:18;;;;;;;;;;;11.50;99.90;;;;;;5015253;28;20144;-58
2021/12/13 07:16:51;;;;;;;0.90;0.43;;;11.50;99.90;;;;;;5017773;28;19936;-58
2021/12/13 07:19:23;;;;;;;1.10;0.50;;;11.50;99.90;;;;;;5017962;28;20137;-59
2021/12/13 07:22:01;;;;;;;1.33;0.70;;;11.50;99.90;;;;;;5016029;28;20096;-59
2021/12/13 07:24:42;;;;;;;1.80;0.50;;;11.60;99.90;;;;;;5018539;28;20524;-58
2021/12/13 07:27:11;;;;;;;2.05;0.80;;;11.60;99.90;;;;;;5017015;28;20053;-58
2021/12/13 07:29:51;;;;;;;2.53;0.80;;;11.60;99.90;;;;;;5018876;28;20085;-58
2021/12/13 07:32:22;;;;;;;0.60;0.50;;;11.60;99.90;;;;;;5018674;28;20500;-57
2021/12/13 07:35:13;;;;;;;0.52;0.40;;;11.60;99.90;;;;;;5020931;28;20136;-58
2021/12/13 07:37:53;;;;;;;0.80;0.60;;;11.60;99.90;;;;;;5022671;28;20053;-58
2021/12/13 07:40:28;;;;;;;1.55;0.55;;;11.60;99.90;;;;;;5022280;28;20141;-58
2021/12/13 07:43:19;;;;;;;1.95;0.70;;;11.60;99.90;;;;;;5021245;28;20084;-59
2021/12/13 07:46:12;;;;;;;0.75;0.50;;;11.60;99.90;;;;;;5021591;28;20077;-57
2021/12/13 07:48:44;;;;;;;2.33;0.60;;;11.60;99.90;;;;;;5008819;28;20163;-56
2021/12/13 07:51:28;;;;;;;1.77;0.70;;;11.60;99.90;;;;;;5020944;28;20053;-55
2021/12/13 07:54:07;;;;;;;1.58;0.70;;;11.60;99.90;;;;;;5021917;28;20114;-59
2021/12/13 07:56:41;;;;;;;1.27;0.70;;;11.60;99.90;;;;;;5019941;28;21001;-55
2021/12/13 07:59:22;;;;;;;0.93;0.50;;;11.60;99.90;;;;;;5019155;28;20181;-58
2021/12/13 08:01:56;;;;;;;0.68;0.40;;;11.60;99.90;;;;;;5020937;28;20569;-59
2021/12/13 08:04:46;;;;;;;1.65;0.73;;;11.60;99.90;;;;;;5021395;28;20041;-56
2021/12/13 08:07:25;;;;;;;1.00;0.63;;;11.60;99.90;;;;;;5019231;28;20053;-57
2021/12/13 08:09:56;;;;;;;1.83;0.70;;;11.50;99.90;;;;;;5019543;28;20132;-57
2021/12/13 08:12:42;;;;;;;1.63;0.70;;;11.60;99.90;;;;;;5019132;28;20049;-58
2021/12/13 08:15:24;;;;;;;1.15;0.60;;;11.60;99.90;;;;;;5019044;28;20049;-57
2021/12/13 08:17:56;;;;;;;4.72;0.80;;;11.70;99.90;;;;;;5017615;28;20128;-55
2021/12/13 08:20:25;;;;;;;1.58;0.90;;;11.70;99.90;;;;;;5014990;28;20057;-58
2021/12/13 08:22:54;;;;;;;2.75;0.80;;;11.70;99.90;;;;;;5017485;28;20132;-58
2021/12/13 08:25:28;;;;;;;1.60;0.70;;;11.70;99.90;;;;;;5020662;28;20476;-59
2021/12/13 08:27:57;;;;;;;1.35;0.63;;;11.70;99.90;;;;;;5018601;28;20136;-58
2021/12/13 08:30:42;;;;;;;1.63;0.70;;;11.80;99.90;;;;;;5020156;28;20172;-57
2021/12/13 08:33:10;;;;;;;1.90;0.93;;;11.80;99.90;;;;;;5015537;28;20150;-57
2021/12/13 08:35:55;;;;;;;1.52;1.05;;;11.90;99.90;;;;;;5019987;28;20164;-58
2021/12/13 08:38:29;;;;;;;1.33;0.70;;;11.90;99.90;;;;;;5017942;28;20447;-59
2021/12/13 08:40:58;;;;;;;4.78;0.90;;;11.80;99.90;;;;;;5015067;28;20045;-58
2021/12/13 08:43:43;;;;;;;3.30;0.90;;;11.90;99.90;;;;;;5018581;28;20045;-57
2021/12/13 08:46:11;;;;;;;0.82;0.65;;;11.90;99.90;;;;;;5016224;28;20089;-59
2021/12/13 08:48:46;;;;;;;2.03;0.63;;;11.90;99.90;;;;;;5020923;28;20072;-58
2021/12/13 08:51:24;;;;;;;2.35;0.90;;;11.90;99.90;;;;;;5020767;28;20418;-59
2021/12/13 08:54:06;;;;;;;2.17;0.70;;;11.90;99.90;;;;;;5020098;28;20948;-58
2021/12/13 08:56:34;;;;;;;2.75;0.85;;;12.00;99.90;;;;;;5014253;28;20165;-57
2021/12/13 08:59:10;;;;;;;1.77;0.80;;;12.00;99.90;;;;;;5020069;28;20081;-57
2021/12/13 09:01:49;;;;;;;1.02;0.90;;;12.00;99.90;;;;;;5020024;28;20439;-55
2021/12/13 09:04:24;;;;;;;1.65;0.82;;;12.00;99.90;;;;;;5018916;28;20149;-58
2021/12/13 09:06:55;;;;;;;3.25;0.93;;;12.10;99.90;;;;;;5019884;28;20124;-58
2021/12/13 09:09:22;;;;;;;1.60;0.85;;;12.00;99.90;;;;;;5016608;28;20648;-54
2021/12/13 09:11:57;;;;;;;1.50;0.82;;;12.00;99.90;;;;;;5016473;28;20161;-57
2021/12/13 09:14:38;;;;;;;3.65;0.95;;;12.00;99.90;;;;;;5017482;28;20145;-57
2021/12/13 09:17:22;;;;;;;5.00;1.48;;;11.90;99.90;;;;;;5017429;28;20124;-57
2021/12/13 09:19:59;;;;;;;3.55;1.17;;;11.90;99.90;;;;;;5019765;28;20116;-58
2021/12/13 09:22:29;;;;;;;3.10;1.00;;;11.90;99.90;;;;;;5019680;28;20207;-57
2021/12/13 09:25:18;;;;;;;1.95;0.93;;;11.90;99.90;;;;;;5020008;28;20125;-58
2021/12/13 09:27:47;;;;;;;2.22;0.88;;;12.00;99.90;;;;;;5018709;28;20080;-57
2021/12/13 09:30:34;;;;;;;2.22;0.90;;;12.00;99.90;;;;;;5017681;28;20140;-57
2021/12/13 09:33:16;;;;;;;1.50;0.85;;;12.00;99.90;;;;;;5018719;28;20136;-56
2021/12/13 09:35:48;;;;;;;2.22;1.05;;;12.00;99.90;;;;;;5019632;28;20113;-58
2021/12/13 09:38:21;;;;;;;2.27;0.87;;;12.00;99.90;;;;;;5020254;28;20156;-58
2021/12/13 09:41:19;;;;;;;4.45;1.05;;;12.00;99.90;;;;;;5019290;28;20388;-53
2021/12/13 09:43:55;;;;;;;2.95;1.00;;;12.00;99.90;;;;;;5013530;28;20057;-58
2021/12/13 09:46:30;;;;;;;1.65;1.00;;;12.00;99.90;;;;;;5018143;28;20087;-58
2021/12/13 09:48:57;;;;;;;1.92;1.08;;;12.00;99.90;;;;;;5019042;28;20057;-58
2021/12/13 09:51:31;;;;;;;3.08;1.08;;;12.00;99.90;;;;;;5019033;28;20155;-57
2021/12/13 09:53:59;;;;;;;2.30;1.10;;;12.00;99.90;;;;;;5015153;28;20083;-58
2021/12/13 09:56:28;;;;;;;1.45;0.70;;;12.00;99.90;;;;;;5017438;28;20137;-58
2021/12/13 09:59:02;;;;;;;1.00;0.50;;;12.10;99.90;;;;;;5019199;28;20517;-57
2021/12/13 10:01:30;;;;;;;;;;;12.10;99.90;;;;;;5019434;28;20050;-57
2021/12/13 10:04:23;;;;;;;1.23;0.50;;;12.20;99.90;;;;;;5018662;28;19987;-57
2021/12/13 10:06:54;;;;;;;1.65;0.80;;;12.20;99.90;;;;;;5016557;28;20060;-59
2021/12/13 10:09:43;;;;;;;1.15;0.50;;;12.20;99.90;;;;;;5017696;28;20713;-56
2021/12/13 10:12:22;;;;;;;1.10;0.50;;;12.10;99.90;;;;;;5014897;28;20056;-56
2021/12/13 10:14:58;;;;;;;2.10;0.80;;;12.10;99.90;;;;;;5018371;28;20136;-58
2021/12/13 10:17:28;;;;;;;2.33;0.80;;;12.00;99.90;;;;;;5018576;28;20077;-58
2021/12/13 10:19:58;;;;;;;1.55;0.93;;;12.00;99.90;;;;;;5018751;28;20132;-57
2021/12/13 10:22:26;;;;;;;2.72;0.80;;;11.90;99.90;;;;;;5007435;28;20057;-57
2021/12/13 10:24:56;;;;;;;1.25;0.60;;;11.90;99.90;;;;;;5018106;28;20461;-58
2021/12/13 10:27:23;;;;;;;1.33;0.50;;;12.00;99.90;;;;;;5017297;28;20088;-57
2021/12/13 10:29:54;;;;;;;1.25;0.60;;;12.00;99.90;;;;;;5017996;28;20116;-58
2021/12/13 10:32:26;;;;;;;1.15;0.70;;;12.00;99.90;;;;;;5017509;28;20093;-57
2021/12/13 10:34:59;;;;;;;0.98;0.40;;;12.00;99.90;;;;;;5019046;28;20129;-55
2021/12/13 10:37:37;;;;;;;3.22;1.13;;;12.00;99.90;;;;;;5018174;28;20106;-58
2021/12/13 10:40:14;;;;;;;3.65;1.05;;;12.00;99.90;;;;;;5018937;28;20544;-56
2021/12/13 10:42:45;;;;;;;1.30;0.70;;;12.00;99.90;;;;;;5016048;28;20156;-56
2021/12/13 10:45:20;;;;;;;1.80;0.60;;;12.00;99.90;;;;;;5017351;28;20146;-58
2021/12/13 10:47:48;;;;;;;1.48;0.50;;;12.10;99.90;;;;;;5015731;28;20838;-57
2021/12/13 10:50:22;;;;;;;2.15;0.50;;;12.10;99.90;;;;;;5017915;28;20140;-57
2021/12/13 10:52:51;;;;;;;2.55;0.93;;;12.10;99.90;;;;;;5017220;28;20567;-58
2021/12/13 10:55:30;;;;;;;1.60;0.75;;;12.10;99.90;;;;;;5015181;28;20048;-57
2021/12/13 10:57:56;;;;;;;1.50;0.52;;;12.10;99.90;;;;;;5016533;28;20204;-56
2021/12/13 11:00:26;;;;;;;1.45;0.50;;;12.20;99.90;;;;;;5017538;28;20587;-58
2021/12/13 11:02:57;;;;;;;0.93;0.40;;;12.20;99.90;;;;;;5018104;28;20053;-54
2021/12/13 11:05:24;;;;;;;2.38;0.70;;;12.20;99.90;;;;;;5014417;28;20054;-57
2021/12/13 11:07:51;;;;;;;0.68;0.40;;;12.40;99.90;;;;;;5019408;28;20053;-58
2021/12/13 11:10:21;;;;;;;0.47;0.40;;;12.40;99.90;;;;;;5021540;28;20132;-58
2021/12/13 11:12:52;;;;;;;;;;;12.40;99.90;;;;;;5021854;28;20103;-57
2021/12/13 11:15:23;;;;;;;2.08;0.50;;;12.40;99.90;;;;;;5022446;28;20016;-57
2021/12/13 11:17:50;;;;;;;1.00;0.30;;;12.50;99.90;;;;;;5022582;28;20132;-57
2021/12/13 11:20:38;;;;;;;1.02;0.40;;;12.50;99.90;;;;;;5022214;28;20152;-56
2021/12/13 11:23:06;;;;;;;1.27;0.40;;;12.50;99.90;;;;;;5020866;28;20412;-58
2021/12/13 11:25:36;;;;;;;1.95;0.45;;;12.50;99.90;;;;;;5022169;28;20737;-58
2021/12/13 11:28:03;;;;;;;2.15;0.60;;;12.50;99.90;;;;;;5021425;28;20160;-58
2021/12/13 11:30:32;;;;;;;0.50;0.40;;;12.50;99.90;;;;;;5022776;28;20160;-58
2021/12/13 11:32:58;;;;;;;1.00;0.35;;;12.60;99.90;;;;;;5021689;28;20183;-58
2021/12/13 11:36:04;;;;;;;0.52;0.25;;;12.70;99.90;;;;;;5022283;28;20085;-58
2021/12/13 11:39:05;;;;;;;1.25;0.40;;;12.80;99.90;;;;;;5010357;28;20531;-58
2021/12/13 11:41:50;;;;;;;1.20;0.55;;;12.90;99.90;;;;;;5020821;28;20477;-58
2021/12/13 11:44:36;;;;;;;0.98;0.40;;;12.90;99.90;;;;;;5021544;28;20092;-58
2021/12/13 11:47:34;;;;;;;1.63;0.60;;;12.90;99.90;;;;;;5020404;28;20077;-58
2021/12/13 11:50:38;;;;;;;0.55;0.52;;;12.90;99.90;;;;;;5022016;28;20132;-57
2021/12/13 11:53:31;;;;;;;0.43;0.30;;;12.90;99.90;;;;;;5021927;28;20050;-57
2021/12/13 11:56:19;;;;;;;0.30;0.30;;;13.00;99.90;;;;;;5021559;28;20144;-58
2021/12/13 11:59:05;;;;;;;0.70;0.40;;;13.10;99.90;;;;;;5022484;28;20701;-58
2021/12/13 12:02:07;;;;;;;0.77;0.28;;;13.10;99.90;;;;;;5022028;28;20140;-58
2021/12/13 12:05:11;;;;;;;1.65;0.65;;;13.00;99.90;;;;;;5021298;28;20543;-58
2021/12/13 12:08:02;;;;;;;0.38;0.30;;;12.90;99.90;;;;;;5022408;28;20080;-57
2021/12/13 12:11:06;;;;;;;1.00;0.40;;;12.80;99.90;;;;;;5021138;28;20173;-58
2021/12/13 12:13:50;;;;;;;0.20;0.20;;;12.70;99.90;;;;;;5020567;28;20136;-58
2021/12/13 12:16:20;;;;;;;0.22;0.20;;;12.60;99.90;;;;;;5021693;28;20084;-57
2021/12/13 12:18:48;;;;;;;0.30;0.20;;;12.50;99.90;;;;;;5021783;28;20092;-57
2021/12/13 12:21:31;;;;;;;0.32;0.20;;;12.50;99.90;;;;;;5020932;28;20053;-56
2021/12/13 12:24:00;;;;;;;0.30;0.30;;;12.50;99.90;;;;;;5021558;28;20132;-58
2021/12/13 12:26:28;;;;;;;1.05;0.30;;;12.40;99.90;;;;;;5019347;28;20726;-58
2021/12/13 12:29:03;;;;;;;0.70;0.35;;;12.50;99.90;;;;;;5020237;28;20413;-58
2021/12/13 12:31:32;;;;;;;1.33;0.30;;;12.40;99.90;;;;;;5017123;28;20128;-58
2021/12/13 12:33:59;;;;;;;0.80;0.40;;;12.30;99.90;;;;;;5015388;28;20409;-54
2021/12/13 12:36:58;;;;;;;1.30;1.00;;;12.30;99.90;;;;;;5017583;28;20103;-58
2021/12/13 12:39:50;;;;;;;0.75;0.38;;;12.30;99.90;;;;;;5012177;28;20444;-55
2021/12/13 12:42:28;;;;;;;0.35;0.30;;;12.30;99.90;;;;;;5013946;28;20508;-56
2021/12/13 12:44:55;;;;;;;0.40;0.30;;;12.30;99.90;;;;;;5013149;28;20128;-57
2021/12/13 12:47:34;;;;;;;0.82;0.40;;;12.40;99.90;;;;;;5015508;28;20776;-57
2021/12/13 12:50:19;;;;;;;0.88;0.30;;;12.30;99.90;;;;;;5020909;28;20053;-59
2021/12/13 12:53:16;;;;;;;0.77;0.43;;;12.40;99.90;;;;;;5019244;28;20126;-58
2021/12/13 12:55:55;;;;;;;1.25;0.40;;;12.40;99.90;;;;;;5017756;28;20132;-58
2021/12/13 12:58:26;;;;;;;1.08;0.55;;;12.40;99.90;;;;;;5017698;28;20136;-58
2021/12/13 13:00:56;;;;;;;1.17;0.47;;;12.50;99.90;;;;;;5019866;28;20132;-59
2021/12/13 13:03:25;;;;;;;0.55;0.30;;;12.60;99.90;;;;;;5020180;28;20049;-59
2021/12/13 13:06:03;;;;;;;0.73;0.38;;;12.70;99.90;;;;;;5020030;28;20474;-58
2021/12/13 13:08:32;;;;;;;0.70;0.38;;;12.70;99.90;;;;;;5018883;28;20163;-58
2021/12/13 13:13:44;;;;;;;1.40;0.60;;;12.70;99.90;;;;;;5014105;28;20061;-58
2021/12/13 13:16:13;;;;;;;2.00;0.65;;;12.60;99.90;;;;;;5019835;28;20049;-56
2021/12/13 13:18:40;;;;;;;1.40;0.55;;;12.60;99.90;;;;;;5019012;28;20061;-57
2021/12/13 13:21:08;;;;;;;1.17;0.65;;;12.60;99.90;;;;;;5020004;28;20470;-57
2021/12/13 13:23:44;;;;;;;1.38;0.70;;;12.60;99.90;;;;;;5019068;28;20081;-58
2021/12/13 13:26:12;;;;;;;0.90;0.52;;;12.60;99.90;;;;;;5016253;28;20569;-56
2021/12/13 13:28:42;;;;;;;1.00;0.40;;;12.60;99.90;;;;;;5017115;28;20132;-57
2021/12/13 13:31:26;;;;;;;0.63;0.50;;;12.60;99.90;;;;;;5019045;28;20081;-57
2021/12/13 13:33:57;;;;;;;0.60;0.30;;;12.60;99.90;;;;;;5019746;28;20053;-58
2021/12/13 13:36:34;;;;;;;2.25;0.50;;;12.70;99.90;;;;;;5018862;28;20085;-58
2021/12/13 13:39:25;;;;;;;1.33;0.40;;;12.80;99.90;;;;;;5019683;28;20115;-58
2021/12/13 13:42:19;;;;;;;1.05;0.45;;;12.70;99.90;;;;;;5017370;28;20137;-57
2021/12/13 13:44:47;;;;;;;0.68;0.30;;;12.70;99.90;;;;;;5011310;28;20167;-58
2021/12/13 13:47:20;;;;;;;1.10;0.47;;;12.70;99.90;;;;;;5017964;28;20140;-55